Mc Donald, Ohio
Current Conditions -  °F | °C
As of 9:51 PM on Wednesday 26 Nov 2014 (Local Time) from KYNG Reporting Station
Overcast Overcast  
Wind Chill: 34°   Ceiling: 2600
Heat Index: 34°   Visibility: 10mi
Dew Point: 30°   Wind: 0mph
Humidity: 85%   Direction: NA
Pressure: 30"   Gusts: NA
Location:  41.1587°N, 80.7233°W
Report Text: KYNG 270251Z 00000KT 10SM FEW019 BKN026 OVC034 01/M01 A3000 RMK AO2 SLP171 T00111011 58002
Loading
Personal Weather Stations






























Interactive Weather Map New forecast layout! Learn more

10-Day Weather Forecast

Advertisements
Track Severe Weather on mobile